createdAt,value
2023-03-02T00:02:40.867Z,16.10
2023-03-02T00:05:46.780Z,13.88
2023-03-02T00:08:49.279Z,13.00
2023-03-02T00:11:52.032Z,16.13
2023-03-02T00:14:54.638Z,10.63
2023-03-02T00:17:56.997Z,14.48
2023-03-02T00:20:59.908Z,15.45
2023-03-02T00:24:02.381Z,12.57
2023-03-02T00:27:04.750Z,15.05
2023-03-02T00:30:08.175Z,11.73
2023-03-02T00:33:12.427Z,14.67
2023-03-02T00:36:18.204Z,16.08
2023-03-02T00:39:20.707Z,19.02
2023-03-02T00:42:23.325Z,19.17
2023-03-02T00:45:26.234Z,16.33
2023-03-02T00:48:28.610Z,18.17
2023-03-02T00:51:31.552Z,22.42
2023-03-02T00:54:34.104Z,14.90
2023-03-02T00:57:36.559Z,19.27
2023-03-02T01:00:40.021Z,18.33
2023-03-02T01:03:43.604Z,15.67
2023-03-02T01:06:47.228Z,19.95
2023-03-02T01:09:49.954Z,18.30
2023-03-02T01:12:52.307Z,15.57
2023-03-02T01:16:02.680Z,18.33
2023-03-02T01:19:05.253Z,16.83
2023-03-02T01:22:08.798Z,18.80
2023-03-02T01:25:13.445Z,16.88
2023-03-02T01:28:15.810Z,18.45
2023-03-02T01:31:18.270Z,22.42
2023-03-02T01:34:20.923Z,16.47
2023-03-02T01:37:23.317Z,16.88
2023-03-02T01:40:25.905Z,17.13
2023-03-02T01:43:29.473Z,19.23
2023-03-02T01:46:36.165Z,14.00
2023-03-02T01:49:41.758Z,16.90
2023-03-02T01:52:44.638Z,18.85
2023-03-02T01:55:47.724Z,18.83
2023-03-02T01:58:54.388Z,19.92
2023-03-02T02:02:00.443Z,20.52
2023-03-02T02:05:04.028Z,23.97
2023-03-02T02:08:07.587Z,24.45
2023-03-02T02:11:11.223Z,23.33
2023-03-02T02:14:13.751Z,25.50
2023-03-02T02:17:19.090Z,26.73
2023-03-02T02:20:34.049Z,23.90
2023-03-02T02:23:57.387Z,26.15
2023-03-02T02:27:01.302Z,22.58
2023-03-02T02:30:07.266Z,17.42
2023-03-02T02:33:19.664Z,21.23
2023-03-02T02:36:33.399Z,17.07
2023-03-02T02:39:42.928Z,17.08
2023-03-02T02:42:49.911Z,18.60
2023-03-02T02:45:56.630Z,17.07
2023-03-02T02:49:03.604Z,16.77
2023-03-02T02:52:10.423Z,15.93
2023-03-02T02:55:17.640Z,14.27
2023-03-02T02:58:53.813Z,14.02
2023-03-02T03:01:56.938Z,14.05
2023-03-02T03:05:05.121Z,11.85
2023-03-02T03:08:30.809Z,17.37
2023-03-02T03:11:40.455Z,11.82
2023-03-02T03:14:43.710Z,12.27
2023-03-02T03:17:55.466Z,18.13
2023-03-02T03:20:58.490Z,14.85
2023-03-02T03:24:01.094Z,16.27
2023-03-02T03:27:06.769Z,15.45
2023-03-02T03:30:13.756Z,16.45
2023-03-02T03:33:19.501Z,16.25
2023-03-02T03:36:22.870Z,17.15
2023-03-02T03:39:25.527Z,18.13
2023-03-02T03:42:28.082Z,16.52
2023-03-02T03:45:32.470Z,15.38
2023-03-02T03:48:34.943Z,14.87
2023-03-02T03:51:37.543Z,17.80
2023-03-02T03:54:41.223Z,17.50
2023-03-02T03:57:43.717Z,17.75
2023-03-02T04:00:50.439Z,17.15
2023-03-02T04:03:53.111Z,17.92
2023-03-02T04:06:56.450Z,18.55
2023-03-02T04:10:04.341Z,28.63
2023-03-02T04:13:10.254Z,22.67
2023-03-02T04:16:12.748Z,20.40
2023-03-02T04:19:17.607Z,16.77
2023-03-02T04:22:22.593Z,15.27
2023-03-02T04:25:27.765Z,17.30
2023-03-02T04:28:34.706Z,19.08
2023-03-02T04:31:38.541Z,17.83
2023-03-02T04:34:41.450Z,14.23
2023-03-02T04:37:44.812Z,14.52
2023-03-02T04:40:47.648Z,14.67
2023-03-02T04:43:52.439Z,17.73
2023-03-02T04:46:54.872Z,16.42
2023-03-02T04:49:57.517Z,18.27
2023-03-02T04:53:00.046Z,15.05
2023-03-02T04:56:02.471Z,21.33
2023-03-02T04:59:04.994Z,15.77
2023-03-02T05:02:08.109Z,19.33
2023-03-02T05:05:17.280Z,16.85
2023-03-02T05:08:19.656Z,19.10
2023-03-02T05:11:23.321Z,18.37
2023-03-02T05:14:26.565Z,19.05
2023-03-02T05:17:29.022Z,22.02
2023-03-02T05:20:32.013Z,19.03
2023-03-02T05:23:35.690Z,22.88
2023-03-02T05:26:38.501Z,18.85
2023-03-02T05:29:40.967Z,16.48
2023-03-02T05:32:43.456Z,17.85
2023-03-02T05:35:46.475Z,17.45
2023-03-02T05:38:48.874Z,17.92
2023-03-02T05:41:51.283Z,18.83
2023-03-02T05:44:53.625Z,17.77
2023-03-02T05:47:57.162Z,15.32
2023-03-02T05:50:59.779Z,18.30
2023-03-02T05:54:02.380Z,15.27
2023-03-02T05:57:04.773Z,20.05
2023-03-02T06:00:10.124Z,26.88
2023-03-02T06:03:18.499Z,29.75
2023-03-02T06:06:20.905Z,31.48
2023-03-02T06:09:23.270Z,43.63
2023-03-02T06:12:25.676Z,42.30
2023-03-02T06:15:30.709Z,24.35
2023-03-02T06:18:33.892Z,22.63
2023-03-02T06:21:36.418Z,29.77
2023-03-02T06:24:39.107Z,31.98
2023-03-02T06:27:42.477Z,33.28
2023-03-02T06:30:46.541Z,42.80
2023-03-02T06:33:49.116Z,31.65
2023-03-02T06:36:51.522Z,45.55
2023-03-02T06:39:57.631Z,66.50
2023-03-02T06:43:03.850Z,41.07
2023-03-02T06:46:06.782Z,20.15
2023-03-02T06:49:13.004Z,17.42
2023-03-02T06:52:17.080Z,27.40
2023-03-02T06:55:19.575Z,16.63
2023-03-02T06:58:22.233Z,14.95
2023-03-02T07:01:25.132Z,10.48
2023-03-02T07:04:29.318Z,9.90
2023-03-02T07:07:35.938Z,9.68
2023-03-02T07:10:40.588Z,9.90
2023-03-02T07:13:44.875Z,12.27
2023-03-02T07:16:49.112Z,9.48
2023-03-02T07:19:53.539Z,9.90
2023-03-02T07:22:58.101Z,8.97
2023-03-02T07:26:01.993Z,10.02
2023-03-02T07:29:05.314Z,8.55
2023-03-02T07:32:08.779Z,8.10
2023-03-02T07:35:12.693Z,6.43
2023-03-02T07:38:16.135Z,33.30
2023-03-02T07:41:19.737Z,45.03
2023-03-02T07:44:22.495Z,23.63
2023-03-02T07:47:25.257Z,34.22
2023-03-02T07:50:31.789Z,197.70
2023-03-02T07:53:34.754Z,37.87
2023-03-02T07:56:38.190Z,37.15
2023-03-02T07:59:51.758Z,81.43
2023-03-02T08:02:59.286Z,28.08
2023-03-02T08:06:13.215Z,20.25
2023-03-02T08:09:18.767Z,25.77
2023-03-02T08:12:23.837Z,26.75
2023-03-02T08:15:28.222Z,17.07
2023-03-02T08:18:36.234Z,24.23
2023-03-02T08:21:43.118Z,13.98
2023-03-02T08:24:47.340Z,16.90
2023-03-02T08:27:51.277Z,17.77
2023-03-02T08:30:58.007Z,23.95
2023-03-02T08:34:02.042Z,14.35
2023-03-02T08:37:06.420Z,12.43
2023-03-02T08:40:11.352Z,11.57
2023-03-02T08:43:20.612Z,12.27
2023-03-02T08:46:25.087Z,16.10
2023-03-02T08:49:29.391Z,14.23
2023-03-02T08:52:40.896Z,12.35
2023-03-02T08:55:48.630Z,12.07
2023-03-02T08:58:55.381Z,15.43
2023-03-02T09:02:00.368Z,11.85
2023-03-02T09:05:05.571Z,12.88
2023-03-02T09:08:10.153Z,22.10
2023-03-02T09:11:14.811Z,13.57
2023-03-02T09:14:19.406Z,26.38
2023-03-02T09:17:24.062Z,38.07
2023-03-02T09:20:28.746Z,14.45
2023-03-02T09:23:36.051Z,11.30
2023-03-02T09:26:42.431Z,24.17
2023-03-02T09:29:46.768Z,14.35
2023-03-02T09:32:51.256Z,18.88
2023-03-02T09:35:55.889Z,14.27
2023-03-02T09:39:00.067Z,8.20
2023-03-02T09:42:29.740Z,9.05
2023-03-02T09:46:10.734Z,8.18
2023-03-02T09:49:58.020Z,8.80
2023-03-02T09:53:27.557Z,8.40
2023-03-02T09:56:47.383Z,9.45
2023-03-02T10:00:09.511Z,5.87
2023-03-02T10:03:23.253Z,10.95
2023-03-02T10:06:27.604Z,6.10
2023-03-02T10:09:31.920Z,8.70
2023-03-02T10:13:12.586Z,6.93
2023-03-02T10:16:29.466Z,7.28
2023-03-02T10:19:43.091Z,9.48
2023-03-02T10:22:54.040Z,8.33
2023-03-02T10:26:15.960Z,6.53
2023-03-02T10:29:28.960Z,8.55
2023-03-02T10:32:53.654Z,9.83
2023-03-02T10:35:57.247Z,8.10
2023-03-02T10:39:01.722Z,5.78
2023-03-02T10:42:10.855Z,5.72
2023-03-02T10:45:43.300Z,5.47
2023-03-02T10:49:01.809Z,12.25
2023-03-02T10:52:13.673Z,8.77
2023-03-02T10:55:18.617Z,19.67
2023-03-02T10:58:35.410Z,7.70
2023-03-02T11:01:40.192Z,5.05
2023-03-02T11:04:45.717Z,6.43
2023-03-02T11:08:12.119Z,8.88
2023-03-02T11:11:24.375Z,9.75
2023-03-02T11:14:28.461Z,5.82
2023-03-02T11:17:38.030Z,11.52
2023-03-02T11:20:47.832Z,5.78
2023-03-02T11:24:16.207Z,8.18
2023-03-02T11:27:27.056Z,7.50
2023-03-02T11:30:35.036Z,7.80
2023-03-02T11:34:16.764Z,6.43
2023-03-02T11:37:22.598Z,5.60
2023-03-02T11:40:42.672Z,7.95
2023-03-02T11:43:45.595Z,6.18
2023-03-02T11:46:59.893Z,7.13
2023-03-02T11:50:05.485Z,27.92
2023-03-02T11:53:17.222Z,8.52
2023-03-02T11:56:21.284Z,7.82
2023-03-02T11:59:28.535Z,7.90
2023-03-02T12:02:32.817Z,7.50
2023-03-02T12:05:40.370Z,7.22
2023-03-02T12:08:46.497Z,20.27
2023-03-02T12:11:56.968Z,5.78
2023-03-02T12:14:59.725Z,8.50
2023-03-02T12:18:02.140Z,5.88
2023-03-02T12:21:11.213Z,5.63
2023-03-02T12:24:27.022Z,8.30
2023-03-02T12:27:39.071Z,10.88
2023-03-02T12:30:41.607Z,5.57
2023-03-02T12:33:48.487Z,7.75
2023-03-02T12:36:54.857Z,7.35
2023-03-02T12:40:15.220Z,6.27
2023-03-02T12:43:33.239Z,7.88
2023-03-02T12:46:37.469Z,5.90
2023-03-02T12:49:47.417Z,6.97
2023-03-02T12:53:15.230Z,9.45
2023-03-02T12:56:25.183Z,5.93
2023-03-02T12:59:29.145Z,5.82
2023-03-02T13:02:34.814Z,7.00
2023-03-02T13:05:37.727Z,5.80
2023-03-02T13:08:43.356Z,5.60
2023-03-02T13:11:48.863Z,7.20
2023-03-02T13:14:54.486Z,9.82
2023-03-02T13:17:59.532Z,9.48
2023-03-02T13:21:04.384Z,11.27
2023-03-02T13:25:06.231Z,12.77
2023-03-02T13:28:27.505Z,7.13
2023-03-02T13:31:32.025Z,6.65
2023-03-02T13:34:35.666Z,8.53
2023-03-02T13:37:43.696Z,13.73
2023-03-02T13:40:49.560Z,25.02
2023-03-02T13:43:52.102Z,10.23
2023-03-02T13:46:55.659Z,9.50
2023-03-02T13:50:07.569Z,9.32
2023-03-02T13:53:15.452Z,10.15
2023-03-02T13:56:18.977Z,8.25
2023-03-02T13:59:22.108Z,7.55
2023-03-02T14:02:27.943Z,32.95
2023-03-02T14:05:33.557Z,7.60
2023-03-02T14:08:36.117Z,10.05
2023-03-02T14:11:44.532Z,9.90
2023-03-02T14:14:47.115Z,6.70
2023-03-02T14:17:49.816Z,5.93
2023-03-02T14:20:53.026Z,8.07
2023-03-02T14:23:55.598Z,7.10
2023-03-02T14:26:58.172Z,7.05
2023-03-02T14:30:01.022Z,6.80
2023-03-02T14:33:03.572Z,6.05
2023-03-02T14:36:06.346Z,7.93
2023-03-02T14:39:20.823Z,6.20
2023-03-02T14:42:24.125Z,12.68
2023-03-02T14:45:26.604Z,7.63
2023-03-02T14:48:29.008Z,6.32
2023-03-02T14:51:34.912Z,9.35
2023-03-02T14:54:48.240Z,6.95
2023-03-02T14:57:54.825Z,7.63
2023-03-02T15:00:57.382Z,9.35
2023-03-02T15:03:59.758Z,5.22
2023-03-02T15:07:02.153Z,7.23
2023-03-02T15:10:06.507Z,10.30
2023-03-02T15:13:10.699Z,6.55
2023-03-02T15:16:13.208Z,6.70
2023-03-02T15:19:15.663Z,7.00
2023-03-02T15:22:18.086Z,7.78
2023-03-02T15:25:20.632Z,9.10
2023-03-02T15:28:23.050Z,11.95
2023-03-02T15:31:27.584Z,6.75
2023-03-02T15:34:30.102Z,9.93
2023-03-02T15:37:32.478Z,16.53
2023-03-02T15:40:37.357Z,14.98
2023-03-02T15:43:39.927Z,11.18
2023-03-02T15:46:42.387Z,12.53
2023-03-02T15:49:44.980Z,10.93
2023-03-02T15:52:47.781Z,27.02
2023-03-02T15:55:50.159Z,26.90
2023-03-02T15:58:52.571Z,30.73
2023-03-02T16:01:59.476Z,40.72
2023-03-02T16:05:02.051Z,29.88
2023-03-02T16:08:04.868Z,26.40
2023-03-02T16:11:08.664Z,33.30
2023-03-02T16:14:14.041Z,28.10
2023-03-02T16:17:18.584Z,30.70
2023-03-02T16:20:21.092Z,28.35
2023-03-02T16:23:23.587Z,29.48
2023-03-02T16:26:25.999Z,26.73
2023-03-02T16:29:28.510Z,29.33
2023-03-02T16:32:33.123Z,21.27
2023-03-02T16:35:36.968Z,27.08
2023-03-02T16:38:39.547Z,26.10
2023-03-02T16:41:43.567Z,26.70
2023-03-02T16:44:46.324Z,25.55
2023-03-02T16:47:49.606Z,28.73
2023-03-02T16:50:57.149Z,34.80
2023-03-02T16:53:59.908Z,32.00
2023-03-02T16:57:02.335Z,23.02
2023-03-02T17:00:07.246Z,21.80
2023-03-02T17:03:11.528Z,19.25
2023-03-02T17:06:16.659Z,19.75
2023-03-02T17:09:19.186Z,22.07
2023-03-02T17:12:21.660Z,22.00
2023-03-02T17:15:24.123Z,21.20
2023-03-02T17:18:27.669Z,22.50
2023-03-02T17:21:30.210Z,29.60
2023-03-02T17:24:33.008Z,41.60
2023-03-02T17:27:35.409Z,32.45
2023-03-02T17:30:39.807Z,20.42
2023-03-02T17:33:42.348Z,54.20
2023-03-02T17:36:44.978Z,39.20
2023-03-02T17:39:50.116Z,24.30
2023-03-02T17:42:56.138Z,23.30
2023-03-02T17:46:20.511Z,32.22
2023-03-02T17:49:23.290Z,52.93
2023-03-02T17:52:26.010Z,50.03
2023-03-02T17:55:28.778Z,69.28
2023-03-02T17:58:44.293Z,68.47
2023-03-02T18:01:47.972Z,62.75
2023-03-02T18:04:50.993Z,64.20
2023-03-02T18:07:54.625Z,71.18
2023-03-02T18:10:57.452Z,70.30
2023-03-02T18:13:59.923Z,50.47
2023-03-02T18:17:04.982Z,52.85
2023-03-02T18:20:08.031Z,53.00
2023-03-02T18:23:12.456Z,39.88
2023-03-02T18:26:15.193Z,40.72
2023-03-02T18:29:17.808Z,36.45
2023-03-02T18:32:20.933Z,33.30
2023-03-02T18:35:23.948Z,26.48
2023-03-02T18:38:30.821Z,28.05
2023-03-02T18:41:33.791Z,19.07
2023-03-02T18:44:36.688Z,14.98
2023-03-02T18:47:39.285Z,15.63
2023-03-02T18:50:43.840Z,15.83
2023-03-02T18:53:47.822Z,14.65
2023-03-02T18:56:50.507Z,17.67
2023-03-02T18:59:53.190Z,14.45
2023-03-02T19:02:57.407Z,12.82
2023-03-02T19:06:00.430Z,14.48
2023-03-02T19:09:03.094Z,13.82
2023-03-02T19:12:06.073Z,13.73
2023-03-02T19:15:10.562Z,13.43
2023-03-02T19:18:24.707Z,11.98
2023-03-02T19:21:27.326Z,12.53
2023-03-02T19:24:30.237Z,13.23
2023-03-02T19:27:33.345Z,12.70
2023-03-02T19:30:37.192Z,13.25
2023-03-02T19:33:40.945Z,12.57
2023-03-02T19:36:43.904Z,10.18
2023-03-02T19:39:46.612Z,10.07
2023-03-02T19:42:50.993Z,12.30
2023-03-02T19:45:53.881Z,12.50
2023-03-02T19:48:57.588Z,13.27
2023-03-02T19:52:00.710Z,15.03
2023-03-02T19:55:03.548Z,12.25
2023-03-02T19:58:07.998Z,9.00
2023-03-02T20:01:11.362Z,11.07
2023-03-02T20:04:14.325Z,10.40
2023-03-02T20:07:17.065Z,8.77
2023-03-02T20:10:29.005Z,9.63
2023-03-02T20:13:33.260Z,8.70
2023-03-02T20:16:36.492Z,9.10
2023-03-02T20:19:39.343Z,10.82
2023-03-02T20:22:42.179Z,12.67
2023-03-02T20:25:48.262Z,15.48
2023-03-02T20:28:52.598Z,14.90
2023-03-02T20:31:55.449Z,10.85
2023-03-02T20:34:58.224Z,12.55
2023-03-02T20:38:02.554Z,9.70
2023-03-02T20:41:06.788Z,10.00
2023-03-02T20:44:11.850Z,10.63
2023-03-02T20:47:16.495Z,10.15
2023-03-02T20:50:25.146Z,12.43
2023-03-02T20:53:28.743Z,11.23
2023-03-02T20:56:31.434Z,9.90
2023-03-02T20:59:36.895Z,10.50
2023-03-02T21:02:39.829Z,11.70
2023-03-02T21:05:43.103Z,9.38
2023-03-02T21:08:46.523Z,11.57
2023-03-02T21:11:49.526Z,17.38
2023-03-02T21:14:53.385Z,15.07
2023-03-02T21:17:57.396Z,15.55
2023-03-02T21:21:02.751Z,16.90
2023-03-02T21:24:05.838Z,16.60
2023-03-02T21:27:08.525Z,16.05
2023-03-02T21:30:19.833Z,15.48
2023-03-02T21:33:22.953Z,18.35
2023-03-02T21:36:25.717Z,17.27
2023-03-02T21:39:28.661Z,20.70
2023-03-02T21:42:31.734Z,17.35
2023-03-02T21:45:35.756Z,14.63
2023-03-02T21:48:38.338Z,14.95
2023-03-02T21:51:40.988Z,19.83
2023-03-02T21:54:43.672Z,14.23
2023-03-02T21:57:46.439Z,18.83
2023-03-02T22:00:49.218Z,20.00
2023-03-02T22:03:52.375Z,19.92
2023-03-02T22:06:55.019Z,18.15
2023-03-02T22:09:57.765Z,21.10
2023-03-02T22:13:34.311Z,25.85
2023-03-02T22:16:41.785Z,23.13
2023-03-02T22:19:44.917Z,21.52
2023-03-02T22:22:49.653Z,22.70
2023-03-02T22:25:56.026Z,24.87
2023-03-02T22:29:09.264Z,27.75
2023-03-02T22:32:35.807Z,25.75
2023-03-02T22:35:38.508Z,20.35
2023-03-02T22:38:48.427Z,35.22
2023-03-02T22:41:54.872Z,44.22
2023-03-02T22:45:14.744Z,56.58
2023-03-02T22:48:19.879Z,54.53
2023-03-02T22:51:30.029Z,51.00
2023-03-02T22:54:37.980Z,49.80
2023-03-02T22:57:41.355Z,45.93
2023-03-02T23:00:48.031Z,48.83
2023-03-02T23:03:54.216Z,47.30
2023-03-02T23:07:01.292Z,50.17
2023-03-02T23:10:04.148Z,44.45
2023-03-02T23:13:09.874Z,44.03
2023-03-02T23:16:20.598Z,46.50
2023-03-02T23:19:24.559Z,42.13
2023-03-02T23:22:29.874Z,45.67
2023-03-02T23:25:32.652Z,50.42
2023-03-02T23:28:35.258Z,49.87
2023-03-02T23:31:38.491Z,49.03
2023-03-02T23:34:41.098Z,51.88
2023-03-02T23:37:43.664Z,43.33
2023-03-02T23:40:46.287Z,53.47
2023-03-02T23:43:49.022Z,48.40
2023-03-02T23:46:52.198Z,52.88
2023-03-02T23:49:54.918Z,49.23
2023-03-02T23:52:57.735Z,43.00
2023-03-02T23:56:00.416Z,45.38
2023-03-02T23:59:03.410Z,43.60
